首页
METAR-TAF:

METAR-TAF

机场 :

阿勒特機場

阿勒特, 努那武特, 加拿大

纬度: 82-31N, 经度: 062-17W, 海拔: 31米

当前天气观测

该预报发布于3小时和26分钟前的21:00 UTC
风速4节,风向西南
温度 -27°C
湿度 75%
气压 1020 hPa
能見度: 16.1公里
多云层高于8500英尺
多云层高于22000英尺
小雪

METAR: CYLT 092100Z 22004KT 10SM -SN BKN085 BKN220 M27/M30 A3012 RMK AC5CI1 LAST OBS/NEXT 100200 UTC SLP207

时间: 19:26 (00:26 UTC)

预报

该预报发布于6小时和56分钟前的17:30 UTC
预报有效从09日的 18点(UTC)到 10日的 06点(UTC)
风速5节,风向西北
能見度: 10公里
少量云层高于2000英尺
散云层高于10000英尺
短暂存在
从 09日的 18点(UTC)到 10日的 06点(UTC)
能見度: 8.0公里
多云层高于2000英尺
阴天层高于10000英尺
小雪

TAF: CYLT 091730Z 0918/1006 32005KT P6SM FEW020 SCT100 TEMPO 0918/1006 5SM -SN BKN020 OVC100 RMK NXT FCST BY 100000Z

超过4000个机场的气象观测和天气预报(METAR&TAF报告)。

可查询的气象台以黄色和红色小点在地图上表示。

将鼠标移到小点上方,可查看气象台名称。

然后点击查看天气观测和预报。

如需切换地图:点击带黑十字的绿色按钮放大地图;点击带横线的绿色按钮缩小地图;或者点击绿色箭头查看邻近地区的地图。


METAR-TAF: